createdAt,value
2018-03-02T00:02:00.357Z,-2.20
2018-03-02T00:04:26.951Z,-2.40
2018-03-02T00:06:53.190Z,-2.40
2018-03-02T00:09:19.440Z,-2.40
2018-03-02T00:11:45.673Z,-2.40
2018-03-02T00:14:11.932Z,-2.50
2018-03-02T00:16:38.172Z,-2.40
2018-03-02T00:19:04.465Z,-2.40
2018-03-02T00:21:30.726Z,-2.50
2018-03-02T00:23:56.949Z,-2.50
2018-03-02T00:26:23.212Z,-2.40
2018-03-02T00:28:49.482Z,-2.60
2018-03-02T00:31:15.799Z,-2.70
2018-03-02T00:33:42.009Z,-2.80
2018-03-02T00:36:08.247Z,-2.80
2018-03-02T00:38:34.458Z,-2.70
2018-03-02T00:41:00.666Z,-2.80
2018-03-02T00:43:26.906Z,-2.60
2018-03-02T00:45:53.127Z,-2.60
2018-03-02T00:48:19.328Z,-2.70
2018-03-02T00:50:45.521Z,-2.70
2018-03-02T00:53:11.776Z,-2.80
2018-03-02T00:55:38.365Z,-3.10
2018-03-02T00:58:04.582Z,-3.10
2018-03-02T01:00:30.993Z,-3.10
2018-03-02T01:02:57.246Z,-3.00
2018-03-02T01:05:23.466Z,-2.90
2018-03-02T01:07:49.678Z,-3.20
2018-03-02T01:10:15.915Z,-3.20
2018-03-02T01:12:42.317Z,-3.10
2018-03-02T01:15:08.545Z,-3.00
2018-03-02T01:17:34.830Z,-3.00
2018-03-02T01:20:01.046Z,-3.10
2018-03-02T01:22:27.269Z,-3.00
2018-03-02T01:24:53.512Z,-2.80
2018-03-02T01:27:19.721Z,-2.80
2018-03-02T01:29:45.971Z,-3.20
2018-03-02T01:32:12.219Z,-3.20
2018-03-02T01:34:38.437Z,-3.20
2018-03-02T01:37:04.635Z,-3.20
2018-03-02T01:39:31.325Z,-3.10
2018-03-02T01:41:57.892Z,-3.00
2018-03-02T01:44:24.169Z,-3.00
2018-03-02T01:46:50.400Z,-3.00
2018-03-02T01:49:16.662Z,-3.00
2018-03-02T01:51:48.783Z,-3.20
2018-03-02T01:54:15.013Z,-3.20
2018-03-02T01:56:41.276Z,-3.10
2018-03-02T01:59:07.883Z,-3.40
2018-03-02T02:01:34.139Z,-3.40
2018-03-02T02:04:00.742Z,-3.50
2018-03-02T02:06:26.956Z,-3.50
2018-03-02T02:08:53.182Z,-3.40
2018-03-02T02:11:19.403Z,-3.40
2018-03-02T02:13:45.632Z,-3.50
2018-03-02T02:16:11.842Z,-3.50
2018-03-02T02:18:38.063Z,-3.70
2018-03-02T02:21:04.298Z,-3.60
2018-03-02T02:23:30.520Z,-3.50
2018-03-02T02:25:56.796Z,-3.70
2018-03-02T02:28:23.053Z,-3.70
2018-03-02T02:30:49.646Z,-3.70
2018-03-02T02:33:15.882Z,-3.70
2018-03-02T02:35:42.153Z,-3.90
2018-03-02T02:38:08.759Z,-3.70
2018-03-02T02:40:35.071Z,-3.70
2018-03-02T02:43:01.313Z,-3.80
2018-03-02T02:45:27.512Z,-3.80
2018-03-02T02:47:53.733Z,-3.80
2018-03-02T02:50:19.942Z,-3.80
2018-03-02T02:52:46.191Z,-3.90
2018-03-02T02:55:12.415Z,-3.90
2018-03-02T02:57:38.650Z,-4.00
2018-03-02T03:00:04.885Z,-3.70
2018-03-02T03:02:31.178Z,-3.70
2018-03-02T03:04:57.424Z,-3.60
2018-03-02T03:07:23.633Z,-3.70
2018-03-02T03:09:49.859Z,-3.70
2018-03-02T03:12:16.059Z,-3.70
2018-03-02T03:14:42.297Z,-3.50
2018-03-02T03:17:08.577Z,-3.60
2018-03-02T03:19:34.834Z,-3.70
2018-03-02T03:22:01.058Z,-3.80
2018-03-02T03:24:27.263Z,-3.50
2018-03-02T03:26:53.495Z,-3.30
2018-03-02T03:29:19.739Z,-3.40
2018-03-02T03:31:45.936Z,-3.50
2018-03-02T03:34:12.123Z,-3.40
2018-03-02T03:36:38.354Z,-3.20
2018-03-02T03:39:04.598Z,-3.20
2018-03-02T03:41:30.868Z,-3.10
2018-03-02T03:43:57.095Z,-3.10
2018-03-02T03:46:23.292Z,-3.30
2018-03-02T03:48:49.493Z,-3.30
2018-03-02T03:51:16.040Z,-3.30
2018-03-02T03:53:42.602Z,-3.50
2018-03-02T03:56:08.824Z,-3.50
2018-03-02T03:58:35.050Z,-3.30
2018-03-02T04:01:01.228Z,-3.40
2018-03-02T04:03:27.442Z,-3.40
2018-03-02T04:05:53.695Z,-3.40
2018-03-02T04:08:20.314Z,-3.70
2018-03-02T04:10:46.553Z,-3.70
2018-03-02T04:13:12.782Z,-3.50
2018-03-02T04:15:39.024Z,-3.40
2018-03-02T04:18:05.237Z,-3.40
2018-03-02T04:20:31.525Z,-3.40
2018-03-02T04:22:57.766Z,-3.40
2018-03-02T04:25:23.972Z,-3.50
2018-03-02T04:27:50.183Z,-3.60
2018-03-02T04:30:16.417Z,-3.70
2018-03-02T04:32:42.664Z,-3.90
2018-03-02T04:35:08.904Z,-3.80
2018-03-02T04:37:35.150Z,-3.60
2018-03-02T04:40:01.428Z,-3.50
2018-03-02T04:42:27.650Z,-3.50
2018-03-02T04:44:53.872Z,-3.50
2018-03-02T04:47:20.078Z,-3.50
2018-03-02T04:49:46.690Z,-3.60
2018-03-02T04:52:12.936Z,-3.60
2018-03-02T04:54:39.149Z,-3.60
2018-03-02T04:57:05.351Z,-3.70
2018-03-02T04:59:31.579Z,-3.60
2018-03-02T05:01:57.829Z,-3.50
2018-03-02T05:04:24.073Z,-3.50
2018-03-02T05:06:50.337Z,-3.50
2018-03-02T05:09:16.906Z,-3.60
2018-03-02T05:11:43.131Z,-3.60
2018-03-02T05:14:09.348Z,-3.70
2018-03-02T05:16:35.584Z,-3.70
2018-03-02T05:19:01.826Z,-3.70
2018-03-02T05:21:28.085Z,-3.90
2018-03-02T05:23:54.352Z,-3.90
2018-03-02T05:26:20.634Z,-3.90
2018-03-02T05:28:46.879Z,-3.90
2018-03-02T05:31:13.462Z,-3.90
2018-03-02T05:33:39.663Z,-3.90
2018-03-02T05:36:05.873Z,-3.90
2018-03-02T05:38:32.460Z,-4.20
2018-03-02T05:40:58.689Z,-4.20
2018-03-02T05:43:24.931Z,-4.00
2018-03-02T05:45:51.214Z,-4.10
2018-03-02T05:48:17.420Z,-4.10
2018-03-02T05:50:44.039Z,-4.10
2018-03-02T05:53:10.251Z,-4.10
2018-03-02T05:55:36.472Z,-4.00
2018-03-02T05:58:02.693Z,-3.90
2018-03-02T06:00:28.898Z,-3.90
2018-03-02T06:02:55.181Z,-4.00
2018-03-02T06:05:21.431Z,-3.90
2018-03-02T06:07:48.011Z,-3.90
2018-03-02T06:10:14.680Z,-3.90
2018-03-02T06:12:40.937Z,-3.80
2018-03-02T06:15:07.515Z,-3.80
2018-03-02T06:17:33.780Z,-3.80
2018-03-02T06:19:59.971Z,-3.80
2018-03-02T06:22:26.183Z,-3.80
2018-03-02T06:24:52.769Z,-3.80
2018-03-02T06:27:18.976Z,-3.90
2018-03-02T06:29:45.203Z,-3.90
2018-03-02T06:32:11.445Z,-4.00
2018-03-02T06:34:37.668Z,-4.10
2018-03-02T06:37:03.925Z,-3.90
2018-03-02T06:39:30.134Z,-3.80
2018-03-02T06:41:56.325Z,-3.80
2018-03-02T06:44:22.611Z,-3.70
2018-03-02T06:46:48.871Z,-3.70
2018-03-02T06:49:15.082Z,-3.70
2018-03-02T06:51:41.337Z,-3.60
2018-03-02T06:54:07.608Z,-3.60
2018-03-02T06:56:33.815Z,-3.60
2018-03-02T06:59:00.074Z,-3.60
2018-03-02T07:01:26.719Z,-3.40
2018-03-02T07:03:53.097Z,-3.40
2018-03-02T07:06:19.402Z,-3.40
2018-03-02T07:08:45.650Z,-3.40
2018-03-02T07:11:11.990Z,-3.30
2018-03-02T07:13:38.244Z,-3.20
2018-03-02T07:16:05.308Z,-3.20
2018-03-02T07:18:31.997Z,-3.20
2018-03-02T07:20:58.221Z,-3.10
2018-03-02T07:23:24.435Z,-3.20
2018-03-02T07:25:50.697Z,-3.10
2018-03-02T07:28:17.179Z,-3.10
2018-03-02T07:30:43.379Z,-3.10
2018-03-02T07:33:09.610Z,-3.00
2018-03-02T07:35:35.858Z,-2.90
2018-03-02T07:38:02.116Z,-2.80
2018-03-02T07:40:28.354Z,-2.90
2018-03-02T07:42:54.612Z,-2.80
2018-03-02T07:45:20.817Z,-3.00
2018-03-02T07:47:47.077Z,-2.90
2018-03-02T07:50:13.328Z,-2.80
2018-03-02T07:52:39.947Z,-2.80
2018-03-02T07:55:06.194Z,-2.80
2018-03-02T07:57:32.781Z,-2.90
2018-03-02T07:59:59.042Z,-2.90
2018-03-02T08:02:25.257Z,-2.50
2018-03-02T08:04:51.473Z,-2.50
2018-03-02T08:07:17.729Z,-2.30
2018-03-02T08:09:44.931Z,-2.10
2018-03-02T08:12:11.177Z,-2.00
2018-03-02T08:14:37.420Z,-1.90
2018-03-02T08:17:03.656Z,-1.90
2018-03-02T08:19:29.891Z,-1.80
2018-03-02T08:21:56.163Z,-2.00
2018-03-02T08:24:22.412Z,-1.90
2018-03-02T08:26:48.705Z,-1.70
2018-03-02T08:29:14.917Z,-1.60
2018-03-02T08:31:41.429Z,-1.70
2018-03-02T08:34:07.682Z,-1.70
2018-03-02T08:36:33.923Z,-1.60
2018-03-02T08:39:00.160Z,-1.60
2018-03-02T08:41:26.382Z,-1.40
2018-03-02T08:43:52.621Z,-1.40
2018-03-02T08:46:18.890Z,-1.40
2018-03-02T08:48:45.111Z,-1.30
2018-03-02T08:51:11.371Z,-1.30
2018-03-02T08:53:38.321Z,-1.10
2018-03-02T08:56:04.541Z,-1.10
2018-03-02T08:58:30.764Z,-1.00
2018-03-02T09:00:57.294Z,-1.00
2018-03-02T09:03:23.910Z,-0.40
2018-03-02T09:05:50.137Z,-0.40
2018-03-02T09:08:16.383Z,-0.40
2018-03-02T09:10:42.618Z,-0.30
2018-03-02T09:13:08.845Z,-0.10
2018-03-02T09:15:35.105Z,0.00
2018-03-02T09:18:01.356Z,0.20
2018-03-02T09:20:27.615Z,0.20
2018-03-02T09:22:53.857Z,0.20
2018-03-02T09:25:20.095Z,0.30
2018-03-02T09:27:46.382Z,0.40
2018-03-02T09:30:12.677Z,0.60
2018-03-02T09:32:39.333Z,1.10
2018-03-02T09:35:05.577Z,1.10
2018-03-02T09:37:31.876Z,1.10
2018-03-02T09:39:58.144Z,1.40
2018-03-02T09:42:24.368Z,1.50
2018-03-02T09:44:50.635Z,1.70
2018-03-02T09:47:17.285Z,1.40
2018-03-02T09:49:43.944Z,1.60
2018-03-02T09:52:10.239Z,1.60
2018-03-02T09:54:36.879Z,1.90
2018-03-02T09:57:03.092Z,1.90
2018-03-02T09:59:29.349Z,2.10
2018-03-02T10:01:55.608Z,2.20
2018-03-02T10:04:21.879Z,2.50
2018-03-02T10:06:48.173Z,2.40
2018-03-02T10:09:14.458Z,2.60
2018-03-02T10:11:40.729Z,2.80
2018-03-02T10:14:07.014Z,3.20
2018-03-02T10:16:33.661Z,4.10
2018-03-02T10:19:00.277Z,4.60
2018-03-02T10:21:26.776Z,4.60
2018-03-02T10:23:52.989Z,4.90
2018-03-02T10:26:19.235Z,4.80
2018-03-02T10:28:45.753Z,4.70
2018-03-02T10:31:11.996Z,5.20
2018-03-02T10:33:38.204Z,5.50
2018-03-02T10:36:04.436Z,6.30
2018-03-02T10:38:30.696Z,7.40
2018-03-02T10:40:56.960Z,8.80
2018-03-02T10:43:23.530Z,11.70
2018-03-02T10:45:49.778Z,11.70
2018-03-02T10:48:16.006Z,13.50
2018-03-02T10:50:42.209Z,15.20
2018-03-02T10:53:08.456Z,16.60
2018-03-02T10:55:34.669Z,17.00
2018-03-02T10:58:00.910Z,17.90
2018-03-02T11:00:33.096Z,19.10
2018-03-02T11:02:59.324Z,19.60
2018-03-02T11:05:31.746Z,19.20
2018-03-02T11:07:58.041Z,18.70
2018-03-02T11:10:24.261Z,18.50
2018-03-02T11:12:50.529Z,16.60
2018-03-02T11:15:16.820Z,15.30
2018-03-02T11:17:43.063Z,15.00
2018-03-02T11:20:09.706Z,14.90
2018-03-02T11:22:36.323Z,15.10
2018-03-02T11:25:02.598Z,15.10
2018-03-02T11:27:28.834Z,16.50
2018-03-02T11:29:55.443Z,18.40
2018-03-02T11:32:22.033Z,16.50
2018-03-02T11:34:48.235Z,16.50
2018-03-02T11:37:14.474Z,16.70
2018-03-02T11:39:40.749Z,17.50
2018-03-02T11:42:07.366Z,20.70
2018-03-02T11:44:33.646Z,20.70
2018-03-02T11:46:59.917Z,21.10
2018-03-02T11:49:26.208Z,21.80
2018-03-02T11:51:52.474Z,21.60
2018-03-02T11:54:18.718Z,20.90
2018-03-02T11:56:44.930Z,19.20
2018-03-02T11:59:11.220Z,18.60
2018-03-02T12:01:37.459Z,19.90
2018-03-02T12:04:03.745Z,20.80
2018-03-02T12:06:29.997Z,21.90
2018-03-02T12:08:56.221Z,22.70
2018-03-02T12:11:22.474Z,23.70
2018-03-02T12:13:48.818Z,23.00
2018-03-02T12:16:15.045Z,22.50
2018-03-02T12:18:41.262Z,22.60
2018-03-02T12:21:07.542Z,22.10
2018-03-02T12:23:33.782Z,22.40
2018-03-02T12:26:00.069Z,22.90
2018-03-02T12:28:26.413Z,23.50
2018-03-02T12:30:52.704Z,23.10
2018-03-02T12:33:18.935Z,22.10
2018-03-02T12:35:45.164Z,21.80
2018-03-02T12:38:11.422Z,20.40
2018-03-02T12:40:38.103Z,17.00
2018-03-02T12:43:04.709Z,12.30
2018-03-02T12:45:30.974Z,12.30
2018-03-02T12:47:57.610Z,9.10
2018-03-02T12:50:23.835Z,9.10
2018-03-02T12:52:50.450Z,7.10
2018-03-02T12:55:16.771Z,7.10
2018-03-02T12:57:42.979Z,6.50
2018-03-02T13:00:09.263Z,6.30
2018-03-02T13:02:35.795Z,5.80
2018-03-02T13:05:02.398Z,4.30
2018-03-02T13:07:28.649Z,4.30
2018-03-02T13:09:54.953Z,4.10
2018-03-02T13:12:21.211Z,3.40
2018-03-02T13:14:47.492Z,3.40
2018-03-02T13:17:13.769Z,2.20
2018-03-02T13:19:40.810Z,2.40
2018-03-02T13:22:19.703Z,2.60
2018-03-02T13:24:45.992Z,2.60
2018-03-02T13:27:24.414Z,2.70
2018-03-02T13:29:50.692Z,2.90
2018-03-02T13:32:16.976Z,2.50
2018-03-02T13:34:55.512Z,2.10
2018-03-02T13:37:21.752Z,2.20
2018-03-02T13:40:00.129Z,2.40
2018-03-02T13:42:26.366Z,2.50
2018-03-02T13:44:52.618Z,2.70
2018-03-02T13:47:18.947Z,2.30
2018-03-02T13:49:57.463Z,2.40
2018-03-02T13:52:24.021Z,2.20
2018-03-02T13:54:50.261Z,1.90
2018-03-02T13:57:29.190Z,2.10
2018-03-02T13:59:55.887Z,2.40
2018-03-02T14:02:34.521Z,2.40
2018-03-02T14:05:01.672Z,2.50
2018-03-02T14:07:27.917Z,3.20
2018-03-02T14:09:54.320Z,3.40
2018-03-02T14:12:20.711Z,3.50
2018-03-02T14:14:47.004Z,3.40
2018-03-02T14:17:13.322Z,3.20
2018-03-02T14:19:39.729Z,3.10
2018-03-02T14:22:06.407Z,2.70
2018-03-02T14:24:32.635Z,3.10
2018-03-02T14:26:59.272Z,3.00
2018-03-02T14:29:26.236Z,3.00
2018-03-02T14:31:52.526Z,3.00
2018-03-02T14:34:18.762Z,2.90
2018-03-02T14:36:45.036Z,2.80
2018-03-02T14:39:11.292Z,2.30
2018-03-02T14:41:37.533Z,2.10
2018-03-02T14:44:03.887Z,2.10
2018-03-02T14:46:30.168Z,2.00
2018-03-02T14:48:56.402Z,2.10
2018-03-02T14:51:22.632Z,2.10
2018-03-02T14:53:48.829Z,1.70
2018-03-02T14:56:15.064Z,1.80
2018-03-02T14:58:41.382Z,1.30
2018-03-02T15:01:07.613Z,1.20
2018-03-02T15:03:33.854Z,1.30
2018-03-02T15:06:00.143Z,1.30
2018-03-02T15:08:26.373Z,1.10
2018-03-02T15:10:52.591Z,0.90
2018-03-02T15:13:18.941Z,0.60
2018-03-02T15:15:45.632Z,1.00
2018-03-02T15:18:11.869Z,1.00
2018-03-02T15:20:38.215Z,1.10
2018-03-02T15:23:04.507Z,0.90
2018-03-02T15:25:30.759Z,0.70
2018-03-02T15:27:57.002Z,0.90
2018-03-02T15:30:23.248Z,0.80
2018-03-02T15:32:49.527Z,0.60
2018-03-02T15:35:15.778Z,0.30
2018-03-02T15:37:42.013Z,0.40
2018-03-02T15:40:08.295Z,0.60
2018-03-02T15:42:34.557Z,0.70
2018-03-02T15:45:00.791Z,0.80
2018-03-02T15:47:27.053Z,0.50
2018-03-02T15:49:53.700Z,0.20
2018-03-02T15:52:20.341Z,0.00
2018-03-02T15:54:47.038Z,0.20
2018-03-02T15:57:13.277Z,0.20
2018-03-02T15:59:39.528Z,0.40
2018-03-02T16:02:05.765Z,0.60
2018-03-02T16:04:31.988Z,0.70
2018-03-02T16:06:58.215Z,0.80
2018-03-02T16:09:24.545Z,0.90
2018-03-02T16:11:51.185Z,1.00
2018-03-02T16:14:17.764Z,1.00
2018-03-02T16:16:43.969Z,1.00
2018-03-02T16:19:10.212Z,0.90
2018-03-02T16:21:36.439Z,0.90
2018-03-02T16:24:02.671Z,0.80
2018-03-02T16:26:29.018Z,0.80
2018-03-02T16:28:55.355Z,1.00
2018-03-02T16:31:22.036Z,1.00
2018-03-02T16:33:48.643Z,1.00
2018-03-02T16:36:14.864Z,1.00
2018-03-02T16:38:41.228Z,0.90
2018-03-02T16:41:07.475Z,1.00
2018-03-02T16:43:33.737Z,1.00
2018-03-02T16:46:00.102Z,1.10
2018-03-02T16:48:26.329Z,1.10
2018-03-02T16:50:52.660Z,1.10
2018-03-02T16:53:18.959Z,1.20
2018-03-02T16:55:46.030Z,1.20
2018-03-02T16:58:12.329Z,1.40
2018-03-02T17:00:38.831Z,1.40
2018-03-02T17:03:05.094Z,1.40
2018-03-02T17:05:31.382Z,1.40
2018-03-02T17:07:57.653Z,1.30
2018-03-02T17:10:23.875Z,1.20
2018-03-02T17:12:50.114Z,1.00
2018-03-02T17:15:16.428Z,0.90
2018-03-02T17:17:42.725Z,1.00
2018-03-02T17:20:08.989Z,1.00
2018-03-02T17:22:35.279Z,1.10
2018-03-02T17:25:01.912Z,1.10
2018-03-02T17:27:28.251Z,1.10
2018-03-02T17:29:54.535Z,0.50
2018-03-02T17:32:20.805Z,0.40
2018-03-02T17:34:47.109Z,0.40
2018-03-02T17:37:13.398Z,0.40
2018-03-02T17:39:39.647Z,0.10
2018-03-02T17:42:05.907Z,0.20
2018-03-02T17:44:32.526Z,0.40
2018-03-02T17:46:58.783Z,0.40
2018-03-02T17:49:25.398Z,0.70
2018-03-02T17:51:51.730Z,0.60
2018-03-02T17:54:18.049Z,0.30
2018-03-02T17:56:44.375Z,0.40
2018-03-02T17:59:10.591Z,0.40
2018-03-02T18:01:36.832Z,0.50
2018-03-02T18:04:03.584Z,0.30
2018-03-02T18:06:29.801Z,0.10
2018-03-02T18:08:56.059Z,0.20
2018-03-02T18:11:23.089Z,0.30
2018-03-02T18:13:49.324Z,0.30
2018-03-02T18:16:15.574Z,0.30
2018-03-02T18:18:41.868Z,0.30
2018-03-02T18:21:08.174Z,0.50
2018-03-02T18:23:34.399Z,0.50
2018-03-02T18:26:00.727Z,0.60
2018-03-02T18:28:26.977Z,0.70
2018-03-02T18:30:53.289Z,0.70
2018-03-02T18:33:19.592Z,0.40
2018-03-02T18:35:45.887Z,0.30
2018-03-02T18:38:12.129Z,0.40
2018-03-02T18:40:39.147Z,0.70
2018-03-02T18:43:05.429Z,0.60
2018-03-02T18:45:31.697Z,0.60
2018-03-02T18:47:57.920Z,0.60
2018-03-02T18:50:24.218Z,0.70
2018-03-02T18:52:50.484Z,1.00
2018-03-02T18:55:16.776Z,0.70
2018-03-02T18:57:43.045Z,0.20
2018-03-02T19:00:09.284Z,0.20
2018-03-02T19:02:35.934Z,0.20
2018-03-02T19:05:02.845Z,0.30
2018-03-02T19:07:29.098Z,0.30
2018-03-02T19:09:55.390Z,0.40
2018-03-02T19:12:22.018Z,0.30
2018-03-02T19:14:48.278Z,0.20
2018-03-02T19:17:15.354Z,0.10
2018-03-02T19:19:42.030Z,0.10
2018-03-02T19:22:08.249Z,0.10
2018-03-02T19:24:34.461Z,0.30
2018-03-02T19:27:01.140Z,0.60
2018-03-02T19:29:27.429Z,0.60
2018-03-02T19:31:53.697Z,0.50
2018-03-02T19:34:19.967Z,0.40
2018-03-02T19:36:46.583Z,0.50
2018-03-02T19:39:12.824Z,0.40
2018-03-02T19:41:39.202Z,0.40
2018-03-02T19:44:05.561Z,0.40
2018-03-02T19:46:38.810Z,0.50
2018-03-02T19:49:05.096Z,0.50
2018-03-02T19:51:31.402Z,0.50
2018-03-02T19:53:57.674Z,0.50
2018-03-02T19:56:23.989Z,0.30
2018-03-02T19:58:50.242Z,0.30
2018-03-02T20:01:16.938Z,0.40
2018-03-02T20:03:43.242Z,0.40
2018-03-02T20:06:09.524Z,0.40
2018-03-02T20:08:35.758Z,0.50
2018-03-02T20:11:02.044Z,0.50
2018-03-02T20:13:28.306Z,0.60
2018-03-02T20:15:54.539Z,0.70
2018-03-02T20:18:20.888Z,0.70
2018-03-02T20:20:47.599Z,1.00
2018-03-02T20:23:13.868Z,0.90
2018-03-02T20:25:40.185Z,0.80
2018-03-02T20:28:06.797Z,0.80
2018-03-02T20:30:33.086Z,0.80
2018-03-02T20:32:59.404Z,0.50
2018-03-02T20:35:25.633Z,0.50
2018-03-02T20:37:52.881Z,0.70
2018-03-02T20:40:19.146Z,0.70
2018-03-02T20:42:45.388Z,0.70
2018-03-02T20:45:11.689Z,0.70
2018-03-02T20:47:38.242Z,0.80
2018-03-02T20:50:04.547Z,0.80
2018-03-02T20:52:30.846Z,0.80
2018-03-02T20:54:57.292Z,0.90
2018-03-02T20:57:23.579Z,0.80
2018-03-02T20:59:49.837Z,0.80
2018-03-02T21:02:16.662Z,0.70
2018-03-02T21:04:43.234Z,0.70
2018-03-02T21:07:09.474Z,0.70
2018-03-02T21:09:35.725Z,0.80
2018-03-02T21:12:01.966Z,0.90
2018-03-02T21:14:28.202Z,1.00
2018-03-02T21:16:54.422Z,0.80
2018-03-02T21:19:20.716Z,0.80
2018-03-02T21:21:47.116Z,0.90
2018-03-02T21:24:13.801Z,0.90
2018-03-02T21:26:40.067Z,0.90
2018-03-02T21:29:06.299Z,1.00
2018-03-02T21:31:33.132Z,1.10
2018-03-02T21:33:59.400Z,1.10
2018-03-02T21:36:25.727Z,1.10
2018-03-02T21:38:52.030Z,1.00
2018-03-02T21:41:18.390Z,1.00
2018-03-02T21:43:44.757Z,1.00
2018-03-02T21:46:11.044Z,1.00
2018-03-02T21:48:37.399Z,1.00
2018-03-02T21:51:03.688Z,1.00
2018-03-02T21:53:30.332Z,1.10
2018-03-02T21:55:57.050Z,1.10
2018-03-02T21:58:23.846Z,1.10
2018-03-02T22:00:50.109Z,1.00
2018-03-02T22:03:16.353Z,1.00
2018-03-02T22:05:42.612Z,1.10
2018-03-02T22:08:08.871Z,1.00
2018-03-02T22:10:35.130Z,1.00
2018-03-02T22:13:01.360Z,1.00
2018-03-02T22:15:28.155Z,0.90
2018-03-02T22:17:54.439Z,0.80
2018-03-02T22:20:20.752Z,1.00
2018-03-02T22:22:47.137Z,1.10
2018-03-02T22:25:13.484Z,1.00
2018-03-02T22:27:39.755Z,0.80
2018-03-02T22:30:06.044Z,0.80
2018-03-02T22:32:32.282Z,1.10
2018-03-02T22:34:58.513Z,1.20
2018-03-02T22:37:24.786Z,1.20
2018-03-02T22:39:51.009Z,1.10
2018-03-02T22:42:17.292Z,1.20
2018-03-02T22:44:43.507Z,1.30
2018-03-02T22:47:09.698Z,1.20
2018-03-02T22:49:36.619Z,1.00
2018-03-02T22:52:02.876Z,1.00
2018-03-02T22:54:29.462Z,1.00
2018-03-02T22:56:55.783Z,1.00
2018-03-02T22:59:21.998Z,0.80
2018-03-02T23:01:48.286Z,0.80
2018-03-02T23:04:14.976Z,0.70
2018-03-02T23:06:41.228Z,0.70
2018-03-02T23:09:07.461Z,0.80
2018-03-02T23:11:33.720Z,1.00
2018-03-02T23:14:00.331Z,0.90
2018-03-02T23:16:26.545Z,0.90
2018-03-02T23:18:52.775Z,0.90
2018-03-02T23:21:19.026Z,0.80
2018-03-02T23:23:45.626Z,0.70
2018-03-02T23:26:11.878Z,0.70
2018-03-02T23:28:38.107Z,0.40
2018-03-02T23:31:04.395Z,0.50
2018-03-02T23:33:30.604Z,0.60
2018-03-02T23:35:56.861Z,0.70
2018-03-02T23:38:23.125Z,0.70
2018-03-02T23:40:49.367Z,0.80
2018-03-02T23:43:15.987Z,1.00
2018-03-02T23:45:42.235Z,1.00
2018-03-02T23:48:08.834Z,1.10
2018-03-02T23:50:35.067Z,1.10
2018-03-02T23:53:01.307Z,1.10
2018-03-02T23:55:27.534Z,1.00
2018-03-02T23:57:53.737Z,1.00
